createdAt,value
2023-03-05T00:00:39.656Z,3.78
2023-03-05T00:02:43.235Z,3.71
2023-03-05T00:04:45.828Z,3.66
2023-03-05T00:06:48.418Z,3.67
2023-03-05T00:08:51.747Z,3.81
2023-03-05T00:10:57.964Z,3.87
2023-03-05T00:13:00.545Z,3.77
2023-03-05T00:15:03.073Z,3.69
2023-03-05T00:17:06.999Z,3.87
2023-03-05T00:19:09.945Z,3.79
2023-03-05T00:21:20.809Z,3.72
2023-03-05T00:23:23.399Z,3.67
2023-03-05T00:25:25.926Z,3.60
2023-03-05T00:27:28.480Z,3.59
2023-03-05T00:29:31.826Z,3.55
2023-03-05T00:31:37.007Z,3.52
2023-03-05T00:33:40.932Z,3.51
2023-03-05T00:35:45.277Z,3.54
2023-03-05T00:37:47.837Z,3.51
2023-03-05T00:39:50.401Z,3.49
2023-03-05T00:41:53.157Z,3.53
2023-03-05T00:43:58.588Z,3.55
2023-03-05T00:46:01.120Z,3.63
2023-03-05T00:48:04.361Z,3.58
2023-03-05T00:50:10.108Z,3.54
2023-03-05T00:52:12.695Z,3.55
2023-03-05T00:54:15.390Z,3.54
2023-03-05T00:56:18.278Z,3.54
2023-03-05T00:58:21.251Z,3.55
2023-03-05T01:00:24.053Z,3.58
2023-03-05T01:02:26.986Z,3.51
2023-03-05T01:04:29.553Z,3.54
2023-03-05T01:06:33.525Z,3.54
2023-03-05T01:08:36.779Z,3.56
2023-03-05T01:10:39.453Z,3.55
2023-03-05T01:12:42.026Z,3.57
2023-03-05T01:14:44.597Z,3.56
2023-03-05T01:16:47.568Z,3.56
2023-03-05T01:18:50.114Z,3.54
2023-03-05T01:20:52.689Z,3.62
2023-03-05T01:22:58.887Z,3.64
2023-03-05T01:25:01.722Z,3.60
2023-03-05T01:27:04.277Z,3.58
2023-03-05T01:29:06.841Z,3.54
2023-03-05T01:31:10.485Z,3.55
2023-03-05T01:33:13.050Z,3.51
2023-03-05T01:35:19.232Z,3.52
2023-03-05T01:37:21.829Z,3.58
2023-03-05T01:39:25.707Z,3.58
2023-03-05T01:41:28.315Z,3.57
2023-03-05T01:43:31.872Z,3.56
2023-03-05T01:45:34.543Z,3.57
2023-03-05T01:47:37.459Z,3.54
2023-03-05T01:49:42.168Z,3.63
2023-03-05T01:51:52.566Z,3.58
2023-03-05T01:53:57.958Z,3.60
2023-03-05T01:56:03.149Z,3.66
2023-03-05T01:58:09.152Z,3.64
2023-03-05T02:00:15.749Z,3.64
2023-03-05T02:02:19.573Z,3.69
2023-03-05T02:04:24.758Z,3.77
2023-03-05T02:06:27.447Z,3.82
2023-03-05T02:08:30.046Z,3.72
2023-03-05T02:10:35.364Z,3.66
2023-03-05T02:12:39.251Z,3.82
2023-03-05T02:14:43.344Z,3.79
2023-03-05T02:16:45.915Z,3.74
2023-03-05T02:18:48.585Z,3.69
2023-03-05T02:20:54.318Z,3.76
2023-03-05T02:22:58.615Z,3.75
2023-03-05T02:25:01.196Z,3.69
2023-03-05T02:27:05.900Z,3.62
2023-03-05T02:29:11.480Z,3.58
2023-03-05T02:31:17.263Z,3.57
2023-03-05T02:33:21.664Z,3.54
2023-03-05T02:35:24.303Z,3.53
2023-03-05T02:37:26.995Z,3.54
2023-03-05T02:39:31.010Z,3.58
2023-03-05T02:41:33.837Z,3.56
2023-03-05T02:43:36.430Z,3.52
2023-03-05T02:45:39.853Z,3.53
2023-03-05T02:47:42.694Z,3.52
2023-03-05T02:49:45.337Z,3.50
2023-03-05T02:51:47.919Z,3.48
2023-03-05T02:53:50.476Z,3.55
2023-03-05T02:55:54.391Z,4.00
2023-03-05T02:57:56.977Z,3.71
2023-03-05T02:59:59.705Z,3.63
2023-03-05T03:02:02.784Z,3.57
2023-03-05T03:04:05.504Z,3.65
2023-03-05T03:06:08.775Z,3.56
2023-03-05T03:08:11.424Z,3.53
2023-03-05T03:10:14.070Z,3.69
2023-03-05T03:12:18.026Z,3.66
2023-03-05T03:14:23.345Z,3.58
2023-03-05T03:16:26.011Z,3.54
2023-03-05T03:18:28.622Z,3.63
2023-03-05T03:20:31.377Z,3.54
2023-03-05T03:22:34.436Z,3.53
2023-03-05T03:24:38.441Z,3.51
2023-03-05T03:26:40.979Z,3.51
2023-03-05T03:28:44.863Z,3.52
2023-03-05T03:30:47.864Z,3.62
2023-03-05T03:32:52.447Z,3.63
2023-03-05T03:34:55.054Z,3.75
2023-03-05T03:36:57.637Z,3.70
2023-03-05T03:39:00.191Z,3.66
2023-03-05T03:41:02.792Z,3.61
2023-03-05T03:43:05.349Z,3.58
2023-03-05T03:45:10.385Z,3.56
2023-03-05T03:47:12.926Z,3.56
2023-03-05T03:49:19.094Z,3.57
2023-03-05T03:51:21.697Z,3.64
2023-03-05T03:53:24.304Z,3.68
2023-03-05T03:55:26.828Z,3.66
2023-03-05T03:57:30.327Z,3.69
2023-03-05T03:59:32.951Z,3.63
2023-03-05T04:01:36.903Z,3.88
2023-03-05T04:03:39.468Z,3.75
2023-03-05T04:05:42.393Z,3.83
2023-03-05T04:07:45.285Z,3.76
2023-03-05T04:09:47.839Z,3.78
2023-03-05T04:11:50.384Z,3.64
2023-03-05T04:13:53.100Z,3.57
2023-03-05T04:15:55.863Z,3.71
2023-03-05T04:17:59.919Z,3.62
2023-03-05T04:20:05.259Z,3.60
2023-03-05T04:22:08.233Z,3.53
2023-03-05T04:24:11.015Z,3.64
2023-03-05T04:26:13.592Z,3.64
2023-03-05T04:28:17.612Z,3.54
2023-03-05T04:30:20.400Z,3.70
2023-03-05T04:32:23.263Z,3.56
2023-03-05T04:34:27.257Z,3.57
2023-03-05T04:36:29.808Z,3.51
2023-03-05T04:38:32.470Z,3.50
2023-03-05T04:40:35.708Z,3.52
2023-03-05T04:42:38.285Z,3.62
2023-03-05T04:44:40.832Z,3.62
2023-03-05T04:46:43.430Z,3.53
2023-03-05T04:48:46.050Z,3.69
2023-03-05T04:50:49.981Z,3.80
2023-03-05T04:52:52.723Z,3.92
2023-03-05T04:54:55.349Z,3.67
2023-03-05T04:57:00.774Z,3.62
2023-03-05T04:59:03.503Z,3.51
2023-03-05T05:01:07.371Z,3.54
2023-03-05T05:03:09.960Z,3.65
2023-03-05T05:05:15.044Z,3.81
2023-03-05T05:07:18.964Z,3.85
2023-03-05T05:09:21.504Z,3.89
2023-03-05T05:11:24.141Z,3.76
2023-03-05T05:13:27.044Z,3.59
2023-03-05T05:15:29.723Z,3.55
2023-03-05T05:17:33.064Z,3.55
2023-03-05T05:19:36.459Z,3.59
2023-03-05T05:21:39.150Z,3.59
2023-03-05T05:23:43.036Z,3.52
2023-03-05T05:25:46.329Z,3.48
2023-03-05T05:27:48.921Z,3.70
2023-03-05T05:29:52.811Z,3.64
2023-03-05T05:31:56.383Z,3.59
2023-03-05T05:33:58.987Z,3.57
2023-03-05T05:36:03.448Z,3.54
2023-03-05T05:38:06.019Z,3.46
2023-03-05T05:40:11.470Z,3.45
2023-03-05T05:42:13.980Z,3.42
2023-03-05T05:44:16.524Z,3.43
2023-03-05T05:46:21.133Z,3.44
2023-03-05T05:48:24.557Z,3.43
2023-03-05T05:50:27.673Z,3.44
2023-03-05T05:52:30.224Z,3.43
2023-03-05T05:54:32.862Z,3.44
2023-03-05T05:56:37.164Z,3.46
2023-03-05T05:58:41.342Z,3.47
2023-03-05T06:00:44.164Z,3.48
2023-03-05T06:02:46.849Z,3.50
2023-03-05T06:04:49.511Z,3.50
2023-03-05T06:06:52.062Z,3.53
2023-03-05T06:08:55.633Z,3.51
2023-03-05T06:10:58.171Z,3.50
2023-03-05T06:13:02.309Z,3.53
2023-03-05T06:15:05.783Z,3.54
2023-03-05T06:17:08.978Z,3.54
2023-03-05T06:19:13.185Z,3.55
2023-03-05T06:21:17.280Z,3.53
2023-03-05T06:23:19.829Z,3.56
2023-03-05T06:25:22.368Z,3.56
2023-03-05T06:27:24.976Z,3.60
2023-03-05T06:29:28.861Z,3.58
2023-03-05T06:31:31.638Z,3.64
2023-03-05T06:33:36.688Z,3.67
2023-03-05T06:35:40.174Z,3.59
2023-03-05T06:37:45.741Z,3.66
2023-03-05T06:39:48.409Z,3.64
2023-03-05T06:41:52.007Z,3.59
2023-03-05T06:43:55.451Z,3.65
2023-03-05T06:46:06.630Z,3.60
2023-03-05T06:48:09.160Z,3.56
2023-03-05T06:50:13.126Z,3.52
2023-03-05T06:52:15.713Z,3.56
2023-03-05T06:54:18.629Z,3.61
2023-03-05T06:56:21.670Z,3.53
2023-03-05T06:58:24.467Z,3.52
2023-03-05T07:00:29.594Z,3.56
2023-03-05T07:02:33.685Z,3.54
2023-03-05T07:04:36.266Z,3.52
2023-03-05T07:06:39.627Z,3.52
2023-03-05T07:08:42.234Z,3.53
2023-03-05T07:10:45.130Z,3.64
2023-03-05T07:12:47.687Z,3.57
2023-03-05T07:14:50.296Z,3.56
2023-03-05T07:16:52.912Z,3.67
2023-03-05T07:18:58.878Z,3.66
2023-03-05T07:21:03.620Z,3.62
2023-03-05T07:23:06.224Z,3.58
2023-03-05T07:25:09.507Z,3.58
2023-03-05T07:27:12.057Z,3.59
2023-03-05T07:29:14.699Z,3.60
2023-03-05T07:31:19.915Z,3.63
2023-03-05T07:33:22.460Z,3.63
2023-03-05T07:35:26.639Z,3.72
2023-03-05T07:37:29.272Z,3.96
2023-03-05T07:39:31.857Z,3.95
2023-03-05T07:41:34.645Z,3.91
2023-03-05T07:43:37.352Z,3.82
2023-03-05T07:45:41.037Z,3.78
2023-03-05T07:47:43.581Z,3.76
2023-03-05T07:49:46.189Z,3.76
2023-03-05T07:51:50.372Z,3.78
2023-03-05T07:53:54.245Z,3.77
2023-03-05T07:55:56.815Z,3.77
2023-03-05T07:57:59.365Z,3.77
2023-03-05T08:00:01.976Z,3.83
2023-03-05T08:02:04.687Z,3.84
2023-03-05T08:04:08.931Z,4.03
2023-03-05T08:06:13.071Z,4.14
2023-03-05T08:08:17.593Z,4.22
2023-03-05T08:10:20.306Z,4.11
2023-03-05T08:12:23.105Z,3.98
2023-03-05T08:14:25.654Z,4.17
2023-03-05T08:16:28.479Z,4.01
2023-03-05T08:18:31.028Z,4.03
2023-03-05T08:20:36.199Z,4.11
2023-03-05T08:22:39.499Z,4.13
2023-03-05T08:24:44.290Z,4.03
2023-03-05T08:26:46.845Z,4.02
2023-03-05T08:28:50.293Z,3.96
2023-03-05T08:30:52.956Z,4.05
2023-03-05T08:32:57.316Z,4.02
2023-03-05T08:34:59.932Z,3.99
2023-03-05T08:37:02.477Z,4.20
2023-03-05T08:39:06.762Z,4.25
2023-03-05T08:41:10.694Z,4.19
2023-03-05T08:43:13.534Z,4.11
2023-03-05T08:45:16.285Z,4.08
2023-03-05T08:47:20.340Z,4.12
2023-03-05T08:49:23.106Z,4.25
2023-03-05T08:51:26.973Z,4.45
2023-03-05T08:53:29.536Z,4.38
2023-03-05T08:55:32.247Z,4.19
2023-03-05T08:57:36.132Z,4.26
2023-03-05T08:59:41.120Z,4.23
2023-03-05T09:01:43.742Z,4.17
2023-03-05T09:03:46.460Z,4.16
2023-03-05T09:05:49.500Z,4.15
2023-03-05T09:07:52.086Z,4.25
2023-03-05T09:09:54.716Z,4.36
2023-03-05T09:11:59.001Z,4.29
2023-03-05T09:14:03.041Z,4.54
2023-03-05T09:16:07.844Z,4.43
2023-03-05T09:18:10.510Z,4.46
2023-03-05T09:20:15.361Z,4.35
2023-03-05T09:22:18.013Z,4.37
2023-03-05T09:24:20.561Z,4.42
2023-03-05T09:26:23.117Z,4.65
2023-03-05T09:28:25.704Z,4.46
2023-03-05T09:30:29.616Z,4.38
2023-03-05T09:32:32.614Z,4.32
2023-03-05T09:34:35.586Z,4.71
2023-03-05T09:36:38.267Z,4.68
2023-03-05T09:38:40.818Z,4.46
2023-03-05T09:40:53.036Z,4.40
2023-03-05T09:43:05.381Z,4.37
2023-03-05T09:45:18.939Z,4.36
2023-03-05T09:47:35.126Z,4.31
2023-03-05T09:49:50.649Z,4.33
2023-03-05T09:52:01.394Z,4.36
2023-03-05T09:54:11.419Z,4.38
2023-03-05T09:56:17.630Z,4.42
2023-03-05T09:58:27.138Z,4.42
2023-03-05T10:00:37.262Z,4.45
2023-03-05T10:02:50.777Z,4.47
2023-03-05T10:04:58.766Z,4.52
2023-03-05T10:07:08.708Z,4.54
2023-03-05T10:09:16.758Z,4.52
2023-03-05T10:11:38.931Z,4.68
2023-03-05T10:13:46.330Z,4.70
2023-03-05T10:15:58.926Z,4.62
2023-03-05T10:18:15.214Z,4.86
2023-03-05T10:20:35.922Z,5.13
2023-03-05T10:22:52.708Z,4.90
2023-03-05T10:25:08.118Z,4.80
2023-03-05T10:27:20.160Z,4.78
2023-03-05T10:30:02.878Z,4.79
2023-03-05T10:32:19.092Z,4.76
2023-03-05T10:34:49.331Z,4.81
2023-03-05T10:37:07.321Z,4.78
2023-03-05T10:39:43.307Z,4.79
2023-03-05T10:42:02.313Z,4.80
2023-03-05T10:44:15.171Z,4.80
2023-03-05T10:46:21.856Z,4.82
2023-03-05T10:48:34.761Z,4.82
2023-03-05T10:50:43.872Z,4.82
2023-03-05T10:52:51.681Z,4.81
2023-03-05T10:54:54.240Z,5.08
2023-03-05T10:57:14.295Z,5.13
2023-03-05T10:59:16.880Z,5.26
2023-03-05T11:01:25.846Z,5.11
2023-03-05T11:03:47.931Z,5.10
2023-03-05T11:05:59.326Z,5.05
2023-03-05T11:08:02.288Z,5.10
2023-03-05T11:10:16.986Z,5.10
2023-03-05T11:12:21.852Z,5.11
2023-03-05T11:14:31.084Z,5.09
2023-03-05T11:16:35.854Z,5.08
2023-03-05T11:18:38.440Z,5.11
2023-03-05T11:20:41.607Z,5.10
2023-03-05T11:23:06.550Z,5.32
2023-03-05T11:25:19.031Z,5.32
2023-03-05T11:27:32.276Z,5.25
2023-03-05T11:29:35.983Z,5.47
2023-03-05T11:31:38.520Z,5.48
2023-03-05T11:33:41.100Z,5.39
2023-03-05T11:35:45.058Z,5.20
2023-03-05T11:38:01.456Z,5.50
2023-03-05T11:40:21.518Z,5.40
2023-03-05T11:42:25.413Z,5.37
2023-03-05T11:44:31.054Z,5.21
2023-03-05T11:46:41.264Z,5.18
2023-03-05T11:48:46.096Z,5.56
2023-03-05T11:50:52.689Z,5.47
2023-03-05T11:52:59.243Z,5.42
2023-03-05T11:55:06.929Z,5.22
2023-03-05T11:57:15.276Z,5.23
2023-03-05T11:59:21.280Z,5.33
2023-03-05T12:01:26.766Z,5.36
2023-03-05T12:03:33.295Z,5.32
2023-03-05T12:05:41.012Z,5.29
2023-03-05T12:07:48.200Z,5.19
2023-03-05T12:09:54.056Z,5.14
2023-03-05T12:12:03.276Z,5.22
2023-03-05T12:14:16.420Z,5.16
2023-03-05T12:16:29.345Z,5.44
2023-03-05T12:18:43.232Z,5.64
2023-03-05T12:20:57.032Z,5.62
2023-03-05T12:22:59.946Z,5.54
2023-03-05T12:25:24.744Z,5.45
2023-03-05T12:27:35.230Z,5.44
2023-03-05T12:29:43.775Z,5.29
2023-03-05T12:31:49.323Z,5.21
2023-03-05T12:33:51.891Z,5.17
2023-03-05T12:35:54.487Z,5.46
2023-03-05T12:38:28.529Z,5.34
2023-03-05T12:40:33.404Z,5.27
2023-03-05T12:42:48.307Z,5.47
2023-03-05T12:45:24.400Z,5.27
2023-03-05T12:47:26.985Z,5.24
2023-03-05T12:49:30.066Z,5.20
2023-03-05T12:51:39.508Z,5.20
2023-03-05T12:53:42.340Z,5.18
2023-03-05T12:55:56.717Z,5.17
2023-03-05T12:58:03.979Z,5.21
2023-03-05T13:00:11.705Z,5.16
2023-03-05T13:02:22.730Z,5.16
2023-03-05T13:04:29.232Z,5.15
2023-03-05T13:06:34.514Z,5.17
2023-03-05T13:08:38.216Z,5.17
2023-03-05T13:10:41.114Z,5.19
2023-03-05T13:12:52.894Z,5.16
2023-03-05T13:14:59.934Z,5.17
2023-03-05T13:17:03.884Z,5.23
2023-03-05T13:19:17.322Z,5.24
2023-03-05T13:21:21.224Z,5.25
2023-03-05T13:23:26.434Z,5.25
2023-03-05T13:25:29.529Z,5.27
2023-03-05T13:27:33.932Z,5.27
2023-03-05T13:29:52.272Z,5.26
2023-03-05T13:31:57.058Z,5.26
2023-03-05T13:34:09.852Z,5.25
2023-03-05T13:36:17.054Z,5.25
2023-03-05T13:38:27.360Z,5.25
2023-03-05T13:40:32.060Z,5.27
2023-03-05T13:42:38.352Z,5.22
2023-03-05T13:44:44.877Z,5.24
2023-03-05T13:46:48.039Z,5.24
2023-03-05T13:48:50.660Z,5.24
2023-03-05T13:50:56.481Z,5.25
2023-03-05T13:53:15.794Z,5.25
2023-03-05T13:55:19.306Z,5.25
2023-03-05T13:57:37.335Z,5.25
2023-03-05T13:59:39.951Z,5.27
2023-03-05T14:01:46.438Z,5.29
2023-03-05T14:03:51.357Z,5.28
2023-03-05T14:05:55.128Z,5.29
2023-03-05T14:07:57.917Z,5.29
2023-03-05T14:10:03.026Z,5.26
2023-03-05T14:12:07.306Z,5.33
2023-03-05T14:14:17.805Z,5.28
2023-03-05T14:16:27.907Z,5.28
2023-03-05T14:18:31.908Z,5.27
2023-03-05T14:20:34.550Z,5.27
2023-03-05T14:22:39.017Z,5.26
2023-03-05T14:24:53.376Z,5.24
2023-03-05T14:26:58.009Z,5.24
2023-03-05T14:29:02.348Z,5.24
2023-03-05T14:31:05.029Z,5.24
2023-03-05T14:33:07.737Z,5.23
2023-03-05T14:35:21.911Z,5.22
2023-03-05T14:37:27.554Z,5.21
2023-03-05T14:39:33.426Z,5.21
2023-03-05T14:41:39.620Z,5.21
2023-03-05T14:43:42.150Z,5.23
2023-03-05T14:45:47.759Z,5.18
2023-03-05T14:47:51.436Z,5.18
2023-03-05T14:49:54.009Z,5.17
2023-03-05T14:51:58.401Z,5.17
2023-03-05T14:54:01.490Z,5.16
2023-03-05T14:56:04.032Z,5.16
2023-03-05T14:58:14.089Z,5.17
2023-03-05T15:00:17.730Z,5.18
2023-03-05T15:02:22.216Z,5.17
2023-03-05T15:04:24.793Z,5.16
2023-03-05T15:06:33.054Z,5.18
2023-03-05T15:08:36.990Z,5.19
2023-03-05T15:10:39.553Z,5.19
2023-03-05T15:12:42.404Z,5.20
2023-03-05T15:14:45.266Z,5.22
2023-03-05T15:16:49.114Z,5.23
2023-03-05T15:18:51.861Z,5.25
2023-03-05T15:20:54.800Z,5.26
2023-03-05T15:22:57.409Z,5.26
2023-03-05T15:25:03.125Z,5.27
2023-03-05T15:27:06.612Z,5.26
2023-03-05T15:29:09.265Z,5.28
2023-03-05T15:31:12.230Z,5.29
2023-03-05T15:33:16.821Z,5.25
2023-03-05T15:35:19.425Z,5.26
2023-03-05T15:37:21.992Z,5.28
2023-03-05T15:39:26.276Z,5.28
2023-03-05T15:41:30.157Z,5.26
2023-03-05T15:43:32.713Z,5.26
2023-03-05T15:45:35.277Z,5.26
2023-03-05T15:47:37.963Z,5.29
2023-03-05T15:49:41.070Z,5.29
2023-03-05T15:51:43.756Z,5.28
2023-03-05T15:53:46.479Z,5.31
2023-03-05T15:55:49.015Z,5.31
2023-03-05T15:57:54.041Z,5.31
2023-03-05T15:59:56.894Z,5.29
2023-03-05T16:01:59.494Z,5.31
2023-03-05T16:04:02.538Z,5.31
2023-03-05T16:06:06.252Z,5.30
2023-03-05T16:08:09.338Z,5.30
2023-03-05T16:10:12.871Z,5.31
2023-03-05T16:12:19.774Z,5.31
2023-03-05T16:14:27.049Z,5.31
2023-03-05T16:16:30.010Z,5.31
2023-03-05T16:18:33.669Z,5.31
2023-03-05T16:20:36.530Z,5.26
2023-03-05T16:22:39.265Z,5.26
2023-03-05T16:24:41.826Z,5.27
2023-03-05T16:26:44.504Z,5.26
2023-03-05T16:28:47.075Z,5.27
2023-03-05T16:30:55.408Z,5.27
2023-03-05T16:32:57.965Z,5.27
2023-03-05T16:35:00.541Z,5.26
2023-03-05T16:37:05.063Z,5.24
2023-03-05T16:39:07.741Z,5.25
2023-03-05T16:41:10.315Z,5.23
2023-03-05T16:43:12.845Z,5.24
2023-03-05T16:45:15.435Z,5.24
2023-03-05T16:47:19.367Z,5.24
2023-03-05T16:49:22.874Z,5.24
2023-03-05T16:51:26.018Z,5.22
2023-03-05T16:53:28.595Z,5.20
2023-03-05T16:55:31.152Z,5.19
2023-03-05T16:57:33.692Z,5.17
2023-03-05T16:59:36.326Z,5.16
2023-03-05T17:01:38.930Z,5.17
2023-03-05T17:03:44.037Z,5.17
2023-03-05T17:05:46.591Z,5.16
2023-03-05T17:07:53.039Z,5.16
2023-03-05T17:09:56.184Z,5.15
2023-03-05T17:11:58.710Z,5.16
2023-03-05T17:14:01.260Z,5.16
2023-03-05T17:16:04.647Z,5.16
2023-03-05T17:18:08.004Z,5.16
2023-03-05T17:20:13.783Z,5.16
2023-03-05T17:22:17.038Z,5.12
2023-03-05T17:24:22.325Z,5.12
2023-03-05T17:26:25.286Z,5.10
2023-03-05T17:28:27.831Z,5.07
2023-03-05T17:30:31.330Z,5.09
2023-03-05T17:32:33.881Z,5.08
2023-03-05T17:34:37.115Z,5.07
2023-03-05T17:36:41.031Z,5.05
2023-03-05T17:38:44.074Z,5.04
2023-03-05T17:40:46.632Z,5.04
2023-03-05T17:42:49.160Z,5.05
2023-03-05T17:44:54.149Z,5.03
2023-03-05T17:46:56.723Z,5.00
2023-03-05T17:48:59.246Z,4.98
2023-03-05T17:51:02.328Z,4.96
2023-03-05T17:53:06.292Z,4.94
2023-03-05T17:55:12.087Z,4.93
2023-03-05T17:57:14.645Z,4.89
2023-03-05T17:59:17.185Z,4.91
2023-03-05T18:01:24.500Z,4.91
2023-03-05T18:03:27.355Z,4.92
2023-03-05T18:05:30.381Z,4.90
2023-03-05T18:07:33.173Z,4.91
2023-03-05T18:09:37.246Z,4.90
2023-03-05T18:11:39.984Z,4.89
2023-03-05T18:13:42.956Z,4.91
2023-03-05T18:15:47.574Z,4.90
2023-03-05T18:17:50.643Z,4.88
2023-03-05T18:19:53.632Z,4.85
2023-03-05T18:21:56.170Z,4.86
2023-03-05T18:23:58.713Z,4.85
2023-03-05T18:26:04.127Z,4.86
2023-03-05T18:28:08.341Z,4.85
2023-03-05T18:30:12.342Z,4.84
2023-03-05T18:32:14.987Z,4.85
2023-03-05T18:34:17.757Z,4.86
2023-03-05T18:36:20.340Z,4.86
2023-03-05T18:38:24.822Z,4.85
2023-03-05T18:40:30.982Z,4.84
2023-03-05T18:42:37.561Z,4.83
2023-03-05T18:44:40.249Z,4.80
2023-03-05T18:46:42.839Z,4.80
2023-03-05T18:48:45.366Z,4.79
2023-03-05T18:50:50.728Z,4.80
2023-03-05T18:52:53.726Z,4.79
2023-03-05T18:54:56.263Z,4.80
2023-03-05T18:56:58.822Z,4.81
2023-03-05T18:59:02.933Z,4.80
2023-03-05T19:01:05.752Z,4.79
2023-03-05T19:03:08.985Z,4.79
2023-03-05T19:05:11.885Z,4.80
2023-03-05T19:07:14.517Z,4.78
2023-03-05T19:09:29.987Z,4.77
2023-03-05T19:11:32.537Z,4.78
2023-03-05T19:13:39.698Z,4.77
2023-03-05T19:15:44.104Z,4.76
2023-03-05T19:17:49.629Z,4.76
2023-03-05T19:19:53.005Z,4.74
2023-03-05T19:21:59.503Z,4.74
2023-03-05T19:24:02.045Z,4.74
2023-03-05T19:26:04.988Z,4.75
2023-03-05T19:28:07.545Z,4.76
2023-03-05T19:30:12.067Z,4.78
2023-03-05T19:32:18.402Z,4.71
2023-03-05T19:34:24.207Z,4.69
2023-03-05T19:36:26.872Z,4.69
2023-03-05T19:38:29.413Z,4.67
2023-03-05T19:40:33.197Z,4.67
2023-03-05T19:42:37.983Z,4.66
2023-03-05T19:44:40.602Z,4.65
2023-03-05T19:46:43.592Z,4.66
2023-03-05T19:48:47.488Z,4.69
2023-03-05T19:50:50.016Z,4.82
2023-03-05T19:52:52.541Z,4.85
2023-03-05T19:54:55.106Z,4.66
2023-03-05T19:56:58.873Z,4.55
2023-03-05T19:59:01.401Z,4.48
2023-03-05T20:01:11.892Z,4.47
2023-03-05T20:03:14.448Z,4.48
2023-03-05T20:05:18.350Z,4.48
2023-03-05T20:07:20.915Z,4.51
2023-03-05T20:09:23.445Z,4.51
2023-03-05T20:11:27.212Z,4.50
2023-03-05T20:13:30.929Z,4.47
2023-03-05T20:15:33.533Z,4.48
2023-03-05T20:17:36.056Z,4.49
2023-03-05T20:19:38.560Z,4.50
2023-03-05T20:21:42.713Z,4.52
2023-03-05T20:23:45.229Z,4.51
2023-03-05T20:25:48.004Z,4.51
2023-03-05T20:27:50.558Z,4.49
2023-03-05T20:29:53.072Z,4.47
2023-03-05T20:31:56.837Z,4.45
2023-03-05T20:33:59.389Z,4.46
2023-03-05T20:36:01.953Z,4.45
2023-03-05T20:38:20.762Z,4.42
2023-03-05T20:40:23.435Z,4.38
2023-03-05T20:42:26.008Z,4.38
2023-03-05T20:44:28.515Z,4.37
2023-03-05T20:46:33.006Z,4.39
2023-03-05T20:48:35.603Z,4.37
2023-03-05T20:50:38.498Z,4.37
2023-03-05T20:52:41.759Z,4.33
2023-03-05T20:54:47.631Z,4.35
2023-03-05T20:56:50.259Z,4.31
2023-03-05T20:58:52.796Z,4.31
2023-03-05T21:00:55.653Z,4.34
2023-03-05T21:02:58.265Z,4.35
2023-03-05T21:05:00.889Z,4.32
2023-03-05T21:07:04.070Z,4.29
2023-03-05T21:09:06.661Z,4.27
2023-03-05T21:11:11.143Z,4.27
2023-03-05T21:13:13.730Z,4.27
2023-03-05T21:15:19.274Z,4.30
2023-03-05T21:17:21.881Z,4.30
2023-03-05T21:19:24.397Z,4.28
2023-03-05T21:21:27.034Z,4.26
2023-03-05T21:23:29.687Z,4.27
2023-03-05T21:25:33.383Z,4.26
2023-03-05T21:27:37.854Z,4.28
2023-03-05T21:29:40.418Z,4.27
2023-03-05T21:31:43.004Z,4.28
2023-03-05T21:33:45.844Z,4.31
2023-03-05T21:35:49.027Z,4.31
2023-03-05T21:37:52.603Z,4.30
2023-03-05T21:39:55.214Z,4.29
2023-03-05T21:41:57.773Z,4.29
2023-03-05T21:44:03.988Z,4.31
2023-03-05T21:46:06.751Z,4.30
2023-03-05T21:48:09.997Z,4.33
2023-03-05T21:50:14.057Z,4.32
2023-03-05T21:52:16.964Z,4.32
2023-03-05T21:54:19.595Z,4.33
2023-03-05T21:56:24.367Z,4.35
2023-03-05T21:58:26.933Z,4.36
2023-03-05T22:00:30.839Z,4.36
2023-03-05T22:02:33.462Z,4.38
2023-03-05T22:04:36.020Z,4.39
2023-03-05T22:06:38.566Z,4.37
2023-03-05T22:08:43.501Z,4.40
2023-03-05T22:10:46.220Z,4.41
2023-03-05T22:12:56.551Z,4.41
2023-03-05T22:14:59.095Z,4.43
2023-03-05T22:17:03.305Z,4.41
2023-03-05T22:19:07.102Z,4.42
2023-03-05T22:21:17.975Z,4.41
2023-03-05T22:23:22.254Z,4.42
2023-03-05T22:25:24.791Z,4.40
2023-03-05T22:27:28.056Z,4.41
2023-03-05T22:29:30.584Z,4.31
2023-03-05T22:31:33.154Z,4.25
2023-03-05T22:33:37.102Z,4.22
2023-03-05T22:35:40.687Z,4.21
2023-03-05T22:37:43.807Z,4.20
2023-03-05T22:39:46.355Z,4.19
2023-03-05T22:41:48.891Z,4.20
2023-03-05T22:43:51.896Z,4.18
2023-03-05T22:45:54.462Z,4.20
2023-03-05T22:47:57.080Z,4.21
2023-03-05T22:50:00.987Z,4.25
2023-03-05T22:52:03.529Z,4.20
2023-03-05T22:54:06.370Z,4.22
2023-03-05T22:56:10.449Z,4.14
2023-03-05T22:58:13.019Z,4.12
2023-03-05T23:00:18.719Z,4.11
2023-03-05T23:02:21.480Z,4.11
2023-03-05T23:04:40.083Z,4.12
2023-03-05T23:06:43.947Z,4.14
2023-03-05T23:08:46.493Z,4.15
2023-03-05T23:10:49.031Z,4.15
2023-03-05T23:12:53.362Z,4.17
2023-03-05T23:14:56.094Z,4.18
2023-03-05T23:16:58.667Z,4.16
2023-03-05T23:19:01.265Z,4.18
2023-03-05T23:21:03.917Z,4.16
2023-03-05T23:23:07.875Z,4.14
2023-03-05T23:25:11.377Z,4.14
2023-03-05T23:27:16.409Z,4.13
2023-03-05T23:29:18.940Z,4.08
2023-03-05T23:31:21.659Z,4.09
2023-03-05T23:33:25.034Z,4.05
2023-03-05T23:35:29.238Z,4.03
2023-03-05T23:37:31.897Z,4.05
2023-03-05T23:39:35.879Z,4.08
2023-03-05T23:41:38.414Z,4.09
2023-03-05T23:43:40.965Z,4.09
2023-03-05T23:45:43.784Z,4.11
2023-03-05T23:47:48.207Z,4.11
2023-03-05T23:49:50.769Z,4.07
2023-03-05T23:51:53.322Z,4.06
2023-03-05T23:53:55.870Z,4.02
2023-03-05T23:55:59.754Z,3.97
2023-03-05T23:58:02.813Z,3.95
